createdAt,value
2022-09-27T00:02:13.705Z,0.95
2022-09-27T00:04:42.611Z,0.77
2022-09-27T00:07:12.230Z,0.80
2022-09-27T00:09:41.382Z,1.48
2022-09-27T00:12:12.569Z,0.68
2022-09-27T00:14:41.775Z,0.93
2022-09-27T00:17:12.103Z,0.95
2022-09-27T00:19:44.550Z,1.05
2022-09-27T00:22:13.786Z,0.98
2022-09-27T00:24:44.444Z,0.98
2022-09-27T00:27:15.225Z,0.85
2022-09-27T00:29:44.406Z,1.20
2022-09-27T00:32:13.601Z,1.20
2022-09-27T00:34:43.289Z,1.30
2022-09-27T00:37:14.951Z,1.55
2022-09-27T00:39:44.329Z,1.13
2022-09-27T00:42:15.028Z,0.95
2022-09-27T00:45:15.564Z,1.27
2022-09-27T00:47:55.853Z,1.23
2022-09-27T00:50:31.270Z,1.08
2022-09-27T00:55:45.030Z,1.20
2022-09-27T00:58:24.038Z,1.05
2022-09-27T01:01:00.622Z,1.10
2022-09-27T01:03:40.783Z,1.33
2022-09-27T01:06:12.309Z,0.80
2022-09-27T01:08:42.296Z,1.15
2022-09-27T01:11:29.292Z,1.48
2022-09-27T01:14:21.077Z,1.00
2022-09-27T01:17:00.398Z,1.88
2022-09-27T01:20:16.236Z,2.00
2022-09-27T01:23:05.558Z,1.50
2022-09-27T01:26:16.144Z,1.10
2022-09-27T01:29:01.191Z,1.40
2022-09-27T01:31:40.853Z,1.45
2022-09-27T01:34:19.429Z,1.20
2022-09-27T01:37:01.748Z,1.13
2022-09-27T01:39:41.811Z,1.65
2022-09-27T01:42:22.649Z,1.63
2022-09-27T01:44:59.196Z,1.65
2022-09-27T01:47:39.452Z,1.95
2022-09-27T01:50:14.883Z,1.30
2022-09-27T01:57:59.297Z,1.40
2022-09-27T02:03:08.157Z,1.40
2022-09-27T02:05:44.239Z,1.83
2022-09-27T02:08:21.428Z,1.45
2022-09-27T02:10:53.841Z,1.20
2022-09-27T02:13:27.766Z,2.22
2022-09-27T02:16:06.724Z,1.60
2022-09-27T02:18:49.429Z,1.83
2022-09-27T02:21:20.369Z,1.77
2022-09-27T02:23:55.820Z,1.52
2022-09-27T02:29:08.118Z,1.50
2022-09-27T02:31:36.755Z,1.90
2022-09-27T02:34:12.444Z,1.25
2022-09-27T02:36:42.178Z,1.60
2022-09-27T02:39:11.987Z,1.50
2022-09-27T02:41:42.054Z,2.15
2022-09-27T02:44:13.529Z,1.75
2022-09-27T02:47:06.032Z,1.50
2022-09-27T02:50:01.254Z,1.58
2022-09-27T02:52:45.147Z,1.95
2022-09-27T02:55:24.831Z,1.70
2022-09-27T02:58:09.234Z,1.85
2022-09-27T03:00:49.659Z,2.35
2022-09-27T03:03:26.312Z,1.45
2022-09-27T03:06:04.344Z,1.55
2022-09-27T03:08:33.851Z,1.83
2022-09-27T03:11:03.608Z,1.50
2022-09-27T03:13:41.880Z,1.50
2022-09-27T03:16:22.805Z,1.42
2022-09-27T03:18:53.650Z,2.42
2022-09-27T03:21:24.243Z,1.38
2022-09-27T03:23:54.160Z,1.73
2022-09-27T03:26:27.468Z,1.60
2022-09-27T03:28:56.413Z,1.88
2022-09-27T03:31:27.442Z,2.08
2022-09-27T03:33:58.405Z,1.73
2022-09-27T03:36:33.877Z,1.65
2022-09-27T03:41:34.026Z,1.73
2022-09-27T03:44:04.189Z,1.20
2022-09-27T03:46:33.183Z,1.40
2022-09-27T03:49:02.504Z,1.20
2022-09-27T03:51:32.758Z,1.25
2022-09-27T03:54:01.908Z,0.90
2022-09-27T03:56:30.754Z,1.27
2022-09-27T03:59:08.856Z,0.50
2022-09-27T04:01:39.412Z,0.60
2022-09-27T04:04:11.201Z,0.88
2022-09-27T04:06:42.059Z,0.60
2022-09-27T04:09:11.424Z,0.70
2022-09-27T04:11:40.987Z,0.50
2022-09-27T04:14:13.142Z,1.13
2022-09-27T04:16:44.052Z,0.60
2022-09-27T04:19:13.725Z,0.73
2022-09-27T04:21:43.979Z,0.80
2022-09-27T04:24:16.075Z,0.85
2022-09-27T04:26:47.054Z,1.02
2022-09-27T04:29:17.438Z,0.90
2022-09-27T04:31:46.540Z,0.80
2022-09-27T04:34:17.110Z,0.63
2022-09-27T04:36:46.302Z,1.00
2022-09-27T04:39:15.489Z,0.93
2022-09-27T04:41:47.155Z,1.10
2022-09-27T04:44:16.468Z,1.67
2022-09-27T04:46:46.578Z,1.77
2022-09-27T04:49:18.019Z,1.10
2022-09-27T04:51:48.804Z,0.93
2022-09-27T04:54:17.891Z,1.75
2022-09-27T04:56:50.656Z,1.23
2022-09-27T04:59:24.570Z,0.80
2022-09-27T05:01:53.673Z,0.80
2022-09-27T05:04:23.373Z,1.33
2022-09-27T05:06:57.206Z,2.20
2022-09-27T05:09:26.105Z,1.75
2022-09-27T05:11:55.033Z,1.60
2022-09-27T05:16:55.571Z,0.82
2022-09-27T05:19:24.807Z,0.75
2022-09-27T05:21:55.019Z,0.73
2022-09-27T05:24:25.099Z,1.48
2022-09-27T05:26:55.547Z,1.30
2022-09-27T05:29:25.894Z,1.10
2022-09-27T05:31:54.994Z,1.10
2022-09-27T05:34:24.081Z,1.40
2022-09-27T05:36:56.149Z,0.90
2022-09-27T05:39:27.485Z,1.30
2022-09-27T05:41:58.410Z,1.10
2022-09-27T05:44:27.663Z,1.60
2022-09-27T05:46:56.650Z,0.93
2022-09-27T05:49:27.754Z,0.90
2022-09-27T05:52:01.434Z,1.42
2022-09-27T05:54:32.937Z,1.38
2022-09-27T05:57:02.762Z,1.20
2022-09-27T05:59:33.266Z,0.90
2022-09-27T06:02:03.401Z,1.30
2022-09-27T06:04:33.365Z,1.13
2022-09-27T06:07:03.802Z,1.05
2022-09-27T06:09:35.437Z,1.38
2022-09-27T06:12:05.657Z,1.00
2022-09-27T06:14:35.430Z,0.85
2022-09-27T06:17:04.917Z,1.20
2022-09-27T06:19:35.655Z,1.63
2022-09-27T06:22:06.045Z,0.63
2022-09-27T06:24:35.331Z,0.90
2022-09-27T06:27:04.572Z,0.82
2022-09-27T06:29:36.391Z,2.10
2022-09-27T06:32:07.973Z,2.22
2022-09-27T06:34:38.380Z,0.98
2022-09-27T06:37:11.341Z,1.05
2022-09-27T06:39:40.957Z,1.48
2022-09-27T06:42:11.284Z,1.48
2022-09-27T06:44:40.305Z,1.50
2022-09-27T06:47:09.709Z,1.10
2022-09-27T06:49:41.042Z,1.30
2022-09-27T06:52:11.566Z,0.82
2022-09-27T06:54:41.204Z,1.00
2022-09-27T06:57:33.495Z,1.67
2022-09-27T07:00:22.665Z,1.27
2022-09-27T07:02:53.539Z,1.75
2022-09-27T07:05:22.692Z,1.20
2022-09-27T07:07:57.639Z,1.52
2022-09-27T07:10:40.553Z,1.90
2022-09-27T07:13:11.674Z,2.95
2022-09-27T07:15:43.606Z,1.30
2022-09-27T07:18:22.264Z,1.23
2022-09-27T07:23:38.499Z,1.38
2022-09-27T07:26:27.683Z,2.92
2022-09-27T07:28:58.522Z,2.53
2022-09-27T07:31:29.714Z,1.60
2022-09-27T07:33:58.200Z,1.33
2022-09-27T07:36:28.840Z,1.33
2022-09-27T07:39:01.509Z,0.85
2022-09-27T07:41:32.250Z,1.33
2022-09-27T07:44:01.856Z,1.23
2022-09-27T07:46:35.042Z,1.20
2022-09-27T07:49:03.583Z,1.08
2022-09-27T07:51:32.539Z,1.00
2022-09-27T07:54:08.652Z,1.23
2022-09-27T07:56:37.792Z,1.27
2022-09-27T07:59:10.595Z,0.80
2022-09-27T08:01:40.736Z,1.05
2022-09-27T08:04:10.257Z,1.30
2022-09-27T08:06:39.726Z,1.40
2022-09-27T08:09:10.935Z,1.05
2022-09-27T08:11:39.650Z,1.40
2022-09-27T08:14:08.183Z,1.05
2022-09-27T08:16:38.726Z,1.88
2022-09-27T08:19:07.392Z,1.30
2022-09-27T08:21:58.066Z,1.70
2022-09-27T08:24:29.934Z,1.27
2022-09-27T08:26:59.791Z,1.42
2022-09-27T08:29:29.063Z,1.23
2022-09-27T08:31:59.546Z,1.27
2022-09-27T08:34:32.473Z,1.23
2022-09-27T08:37:02.272Z,0.90
2022-09-27T08:39:33.449Z,0.98
2022-09-27T08:42:17.570Z,1.00
2022-09-27T08:45:02.929Z,1.50
2022-09-27T08:47:39.134Z,1.10
2022-09-27T08:50:25.003Z,1.75
2022-09-27T08:55:37.469Z,1.10
2022-09-27T08:58:17.804Z,1.05
2022-09-27T09:00:46.944Z,1.45
2022-09-27T09:03:22.990Z,1.38
2022-09-27T09:06:10.262Z,1.48
2022-09-27T09:08:57.700Z,1.10
2022-09-27T09:12:02.425Z,0.95
2022-09-27T09:15:03.688Z,0.93
2022-09-27T09:17:53.760Z,1.80
2022-09-27T09:20:37.942Z,1.10
2022-09-27T09:23:39.646Z,0.95
2022-09-27T09:26:19.241Z,1.80
2022-09-27T09:29:11.739Z,1.48
2022-09-27T09:31:48.476Z,1.35
2022-09-27T09:34:23.465Z,0.70
2022-09-27T09:37:00.864Z,1.20
2022-09-27T09:39:36.267Z,1.30
2022-09-27T09:42:14.071Z,1.10
2022-09-27T09:44:54.442Z,1.20
2022-09-27T09:47:37.309Z,1.20
2022-09-27T09:50:17.865Z,1.58
2022-09-27T09:52:52.567Z,1.20
2022-09-27T09:55:26.139Z,1.20
2022-09-27T09:58:04.368Z,1.20
2022-09-27T10:00:35.399Z,1.40
2022-09-27T10:03:06.447Z,1.92
2022-09-27T10:05:35.840Z,1.10
2022-09-27T10:08:09.179Z,1.45
2022-09-27T10:10:37.785Z,1.50
2022-09-27T10:13:06.685Z,1.40
2022-09-27T10:15:38.483Z,1.35
2022-09-27T10:18:08.172Z,2.63
2022-09-27T10:20:43.726Z,1.70
2022-09-27T10:23:19.858Z,1.30
2022-09-27T10:25:54.272Z,1.42
2022-09-27T10:28:39.345Z,1.77
2022-09-27T10:31:14.391Z,1.60
2022-09-27T10:33:57.800Z,1.60
2022-09-27T10:36:29.682Z,1.40
2022-09-27T10:39:02.473Z,1.60
2022-09-27T10:41:36.671Z,1.92
2022-09-27T10:44:26.692Z,2.17
2022-09-27T10:47:00.037Z,1.50
2022-09-27T10:49:32.176Z,1.60
2022-09-27T10:52:04.342Z,1.65
2022-09-27T10:54:37.680Z,1.35
2022-09-27T10:57:17.874Z,1.60
2022-09-27T10:59:56.028Z,1.42
2022-09-27T11:02:33.330Z,1.33
2022-09-27T11:05:16.013Z,1.70
2022-09-27T11:07:53.914Z,1.20
2022-09-27T11:10:28.741Z,1.42
2022-09-27T11:13:17.008Z,1.85
2022-09-27T11:16:07.834Z,1.90
2022-09-27T11:18:48.922Z,1.75
2022-09-27T11:21:27.393Z,1.30
2022-09-27T11:24:13.523Z,1.27
2022-09-27T11:26:57.982Z,1.50
2022-09-27T11:29:37.432Z,1.60
2022-09-27T11:32:30.953Z,1.50
2022-09-27T11:35:32.847Z,1.27
2022-09-27T11:38:40.870Z,1.10
2022-09-27T11:41:40.298Z,1.05
2022-09-27T11:44:45.762Z,1.10
2022-09-27T11:47:29.949Z,1.48
2022-09-27T11:50:29.461Z,1.23
2022-09-27T11:53:16.245Z,1.40
2022-09-27T11:55:54.546Z,1.58
2022-09-27T11:58:33.196Z,1.30
2022-09-27T12:01:17.617Z,1.35
2022-09-27T12:04:23.743Z,1.70
2022-09-27T12:07:05.839Z,2.25
2022-09-27T12:09:40.201Z,1.20
2022-09-27T12:12:19.730Z,1.52
2022-09-27T12:14:55.724Z,1.27
2022-09-27T12:17:30.217Z,1.20
2022-09-27T12:20:05.488Z,1.13
2022-09-27T12:22:59.072Z,1.33
2022-09-27T12:25:35.582Z,1.27
2022-09-27T12:28:12.322Z,1.33
2022-09-27T12:30:49.062Z,1.33
2022-09-27T12:33:27.755Z,1.23
2022-09-27T12:36:00.557Z,1.27
2022-09-27T12:38:42.834Z,1.10
2022-09-27T12:41:18.999Z,1.13
2022-09-27T12:43:53.444Z,1.20
2022-09-27T12:46:37.396Z,1.60
2022-09-27T12:49:13.460Z,1.10
2022-09-27T12:51:49.484Z,1.10
2022-09-27T12:54:57.107Z,1.40
2022-09-27T12:57:41.288Z,1.15
2022-09-27T13:00:15.846Z,1.35
2022-09-27T13:03:25.100Z,1.10
2022-09-27T13:06:20.589Z,1.20
2022-09-27T13:09:14.974Z,0.85
2022-09-27T13:11:53.711Z,1.10
2022-09-27T13:14:27.769Z,0.93
2022-09-27T13:16:56.559Z,1.38
2022-09-27T13:19:46.110Z,0.90
2022-09-27T13:22:41.397Z,0.93
2022-09-27T13:25:55.600Z,0.80
2022-09-27T13:28:58.686Z,3.40
2022-09-27T13:32:12.692Z,1.10
2022-09-27T13:34:44.110Z,1.40
2022-09-27T13:37:47.337Z,0.85
2022-09-27T13:40:34.980Z,0.73
2022-09-27T13:43:54.384Z,0.90
2022-09-27T13:46:28.493Z,1.17
2022-09-27T13:49:02.156Z,0.80
2022-09-27T13:51:41.458Z,0.88
2022-09-27T13:54:40.277Z,1.20
2022-09-27T13:57:53.708Z,2.88
2022-09-27T14:00:29.739Z,1.23
2022-09-27T14:03:25.626Z,1.30
2022-09-27T14:06:02.729Z,0.93
2022-09-27T14:08:40.345Z,0.82
2022-09-27T14:11:15.954Z,0.90
2022-09-27T14:13:47.564Z,0.90
2022-09-27T14:16:21.090Z,1.23
2022-09-27T14:18:58.040Z,0.75
2022-09-27T14:21:34.603Z,1.25
2022-09-27T14:24:31.330Z,1.13
2022-09-27T14:27:13.815Z,0.80
2022-09-27T14:29:46.942Z,0.80
2022-09-27T14:32:20.053Z,0.82
2022-09-27T14:35:03.963Z,0.63
2022-09-27T14:37:33.484Z,0.50
2022-09-27T14:40:08.332Z,1.00
2022-09-27T14:42:38.969Z,0.88
2022-09-27T14:45:22.295Z,0.98
2022-09-27T14:47:53.704Z,0.85
2022-09-27T14:50:29.264Z,1.75
2022-09-27T14:53:00.899Z,1.35
2022-09-27T14:55:34.974Z,0.90
2022-09-27T14:58:08.673Z,0.88
2022-09-27T15:00:49.691Z,0.88
2022-09-27T15:03:33.405Z,1.15
2022-09-27T15:06:05.702Z,1.80
2022-09-27T15:08:35.697Z,0.70
2022-09-27T15:11:07.949Z,0.70
2022-09-27T15:13:38.496Z,0.93
2022-09-27T15:16:13.270Z,2.42
2022-09-27T15:18:46.779Z,1.10
2022-09-27T15:21:32.827Z,1.20
2022-09-27T15:24:03.901Z,1.33
2022-09-27T15:26:42.384Z,1.42
2022-09-27T15:29:20.927Z,1.70
2022-09-27T15:32:01.578Z,1.10
2022-09-27T15:34:35.262Z,0.77
2022-09-27T15:37:06.728Z,0.82
2022-09-27T15:39:38.395Z,2.80
2022-09-27T15:42:10.530Z,1.13
2022-09-27T15:44:47.433Z,1.33
2022-09-27T15:47:50.187Z,1.02
2022-09-27T15:50:39.982Z,1.45
2022-09-27T15:53:11.369Z,1.95
2022-09-27T15:55:43.697Z,2.40
2022-09-27T15:58:18.963Z,1.60
2022-09-27T16:00:55.823Z,2.10
2022-09-27T16:03:26.119Z,1.40
2022-09-27T16:05:58.630Z,1.17
2022-09-27T16:08:29.060Z,3.50
2022-09-27T16:11:03.522Z,1.85
2022-09-27T16:13:33.317Z,2.45
2022-09-27T16:16:11.803Z,7.38
2022-09-27T16:18:40.737Z,103.88
2022-09-27T16:21:11.149Z,5.53
2022-09-27T16:23:45.139Z,3.83
2022-09-27T16:26:13.886Z,2.35
2022-09-27T16:28:42.634Z,2.13
2022-09-27T16:31:17.185Z,2.00
2022-09-27T16:33:49.474Z,1.88
2022-09-27T16:36:21.425Z,2.45
2022-09-27T16:38:51.896Z,3.45
2022-09-27T16:41:22.737Z,2.90
2022-09-27T16:43:51.916Z,2.78
2022-09-27T16:46:20.711Z,2.83
2022-09-27T16:48:50.003Z,2.67
2022-09-27T16:51:40.694Z,2.80
2022-09-27T16:54:11.419Z,3.20
2022-09-27T16:56:42.385Z,3.25
2022-09-27T16:59:11.266Z,3.65
2022-09-27T17:01:39.767Z,3.03
2022-09-27T17:04:09.136Z,2.90
2022-09-27T17:06:39.649Z,2.22
2022-09-27T17:09:08.228Z,2.05
2022-09-27T17:11:37.535Z,2.00
2022-09-27T17:14:07.514Z,2.00
2022-09-27T17:16:36.108Z,1.48
2022-09-27T17:19:05.587Z,2.17
2022-09-27T17:21:38.066Z,2.72
2022-09-27T17:24:09.628Z,2.47
2022-09-27T17:26:38.310Z,1.55
2022-09-27T17:29:09.233Z,2.03
2022-09-27T17:31:41.250Z,1.60
2022-09-27T17:34:15.166Z,1.95
2022-09-27T17:36:48.485Z,2.42
2022-09-27T17:39:21.572Z,2.30
2022-09-27T17:41:52.625Z,3.08
2022-09-27T17:44:23.752Z,2.50
2022-09-27T17:47:13.240Z,2.97
2022-09-27T17:50:02.908Z,3.53
2022-09-27T17:52:38.982Z,3.50
2022-09-27T17:55:11.295Z,4.32
2022-09-27T17:57:46.435Z,3.80
2022-09-27T18:00:19.244Z,3.17
2022-09-27T18:02:51.720Z,3.10
2022-09-27T18:05:25.057Z,3.63
2022-09-27T18:07:56.613Z,4.47
2022-09-27T18:10:44.495Z,4.20
2022-09-27T18:13:29.838Z,4.30
2022-09-27T18:16:11.828Z,3.60
2022-09-27T18:18:51.001Z,8.18
2022-09-27T18:21:28.756Z,11.25
2022-09-27T18:24:09.086Z,9.48
2022-09-27T18:26:49.103Z,6.25
2022-09-27T18:29:22.099Z,6.03
2022-09-27T18:31:58.556Z,6.10
2022-09-27T18:34:35.186Z,7.88
2022-09-27T18:37:14.855Z,6.22
2022-09-27T18:39:47.644Z,6.60
2022-09-27T18:42:21.553Z,6.78
2022-09-27T18:44:56.310Z,6.35
2022-09-27T18:47:27.365Z,6.40
2022-09-27T18:50:03.566Z,7.03
2022-09-27T18:52:38.092Z,6.20
2022-09-27T18:55:16.758Z,5.82
2022-09-27T18:57:58.606Z,6.35
2022-09-27T19:00:31.838Z,9.30
2022-09-27T19:03:06.119Z,7.53
2022-09-27T19:05:41.700Z,8.17
2022-09-27T19:08:17.008Z,8.52
2022-09-27T19:10:46.538Z,7.65
2022-09-27T19:13:21.469Z,6.82
2022-09-27T19:16:06.338Z,5.85
2022-09-27T19:18:42.460Z,5.03
2022-09-27T19:21:29.897Z,4.60
2022-09-27T19:24:02.939Z,5.13
2022-09-27T19:26:33.991Z,5.53
2022-09-27T19:29:07.622Z,7.10
2022-09-27T19:31:42.383Z,6.78
2022-09-27T19:34:18.180Z,14.00
2022-09-27T19:36:57.023Z,9.43
2022-09-27T19:42:26.380Z,8.90
2022-09-27T19:44:57.963Z,10.93
2022-09-27T19:47:33.228Z,11.27
2022-09-27T19:52:48.744Z,13.67
2022-09-27T19:55:25.631Z,12.48
2022-09-27T19:57:58.263Z,11.57
2022-09-27T20:00:31.163Z,11.27
2022-09-27T20:03:02.895Z,12.05
2022-09-27T20:05:51.023Z,13.07
2022-09-27T20:08:23.602Z,12.55
2022-09-27T20:11:05.200Z,14.45
2022-09-27T20:13:42.401Z,12.88
2022-09-27T20:16:16.502Z,12.75
2022-09-27T20:18:50.081Z,13.18
2022-09-27T20:21:21.405Z,13.35
2022-09-27T20:23:56.839Z,12.80
2022-09-27T20:29:00.598Z,14.27
2022-09-27T20:31:33.199Z,13.60
2022-09-27T20:34:02.525Z,15.05
2022-09-27T20:36:36.682Z,15.15
2022-09-27T20:39:08.143Z,15.30
2022-09-27T20:41:39.642Z,14.73
2022-09-27T20:44:15.080Z,16.73
2022-09-27T20:46:45.790Z,16.48
2022-09-27T20:49:19.620Z,17.05
2022-09-27T20:51:51.227Z,17.45
2022-09-27T20:54:20.373Z,17.50
2022-09-27T20:56:50.244Z,18.15
2022-09-27T20:59:22.481Z,19.73
2022-09-27T21:01:56.295Z,20.45
2022-09-27T21:04:25.306Z,18.55
2022-09-27T21:06:56.656Z,20.45
2022-09-27T21:09:25.315Z,18.45
2022-09-27T21:11:53.976Z,32.63
2022-09-27T21:14:25.182Z,50.50
2022-09-27T21:16:53.564Z,28.45
2022-09-27T21:19:22.646Z,32.05
2022-09-27T21:21:53.942Z,25.80
2022-09-27T21:24:23.802Z,24.50
2022-09-27T21:26:53.715Z,23.27
2022-09-27T21:29:23.869Z,23.52
2022-09-27T21:31:53.055Z,24.17
2022-09-27T21:34:23.940Z,26.02
2022-09-27T21:36:52.659Z,26.48
2022-09-27T21:39:21.475Z,26.77
2022-09-27T21:41:51.030Z,27.60
2022-09-27T21:44:19.568Z,28.25
2022-09-27T21:46:52.606Z,27.38
2022-09-27T21:49:21.157Z,26.10
2022-09-27T21:51:49.963Z,27.23
2022-09-27T21:54:19.140Z,26.58
2022-09-27T21:56:48.463Z,27.30
2022-09-27T21:59:18.233Z,27.95
2022-09-27T22:01:49.474Z,26.88
2022-09-27T22:04:17.953Z,27.48
2022-09-27T22:06:47.015Z,27.02
2022-09-27T22:09:19.497Z,28.10
2022-09-27T22:11:48.660Z,27.85
2022-09-27T22:14:20.002Z,25.80
2022-09-27T22:16:50.698Z,28.05
2022-09-27T22:19:21.232Z,27.60
2022-09-27T22:21:49.460Z,27.00
2022-09-27T22:24:20.198Z,26.92
2022-09-27T22:26:54.414Z,27.83
2022-09-27T22:29:23.682Z,25.38
2022-09-27T22:31:54.401Z,25.63
2022-09-27T22:34:29.242Z,24.58
2022-09-27T22:37:01.367Z,23.85
2022-09-27T22:39:30.743Z,23.60
2022-09-27T22:41:59.879Z,22.15
2022-09-27T22:44:28.444Z,23.10
2022-09-27T22:47:00.108Z,22.48
2022-09-27T22:49:28.828Z,23.55
2022-09-27T22:51:57.327Z,20.85
2022-09-27T22:54:26.020Z,20.27
2022-09-27T22:56:57.266Z,19.48
2022-09-27T22:59:27.063Z,19.75
2022-09-27T23:01:57.611Z,18.20
2022-09-27T23:04:28.116Z,17.75
2022-09-27T23:06:57.504Z,17.88
2022-09-27T23:09:26.631Z,17.02
2022-09-27T23:11:55.899Z,15.70
2022-09-27T23:14:26.143Z,15.57
2022-09-27T23:16:54.886Z,13.40
2022-09-27T23:19:29.460Z,13.30
2022-09-27T23:22:00.024Z,12.13
2022-09-27T23:24:30.125Z,11.70
2022-09-27T23:27:16.555Z,11.27
2022-09-27T23:29:46.033Z,9.90
2022-09-27T23:32:14.972Z,10.02
2022-09-27T23:34:45.715Z,10.13
2022-09-27T23:37:14.408Z,9.65
2022-09-27T23:39:42.905Z,8.23
2022-09-27T23:42:11.496Z,6.75
2022-09-27T23:44:40.302Z,7.53
2022-09-27T23:47:10.925Z,7.13
2022-09-27T23:49:39.502Z,7.30
2022-09-27T23:52:12.623Z,6.95
2022-09-27T23:54:42.099Z,6.72
2022-09-27T23:57:10.958Z,7.03
2022-09-27T23:59:39.957Z,7.28
